sensor_id;sensor_type;location;lat;lon;timestamp;P1;durP1;ratioP1;P2;durP2;ratioP2
19675;SDS011;39539;52.202;9.876;2023-09-08T00:00:07;8.73;;;8.13;;
19675;SDS011;39539;52.202;9.876;2023-09-08T00:02:34;8.10;;;7.50;;
19675;SDS011;39539;52.202;9.876;2023-09-08T00:05:02;8.85;;;8.23;;
19675;SDS011;39539;52.202;9.876;2023-09-08T00:07:28;8.60;;;8.00;;
19675;SDS011;39539;52.202;9.876;2023-09-08T00:09:53;8.48;;;7.78;;
19675;SDS011;39539;52.202;9.876;2023-09-08T00:12:19;8.43;;;7.72;;
19675;SDS011;39539;52.202;9.876;2023-09-08T00:14:45;9.27;;;8.45;;
19675;SDS011;39539;52.202;9.876;2023-09-08T00:17:11;8.85;;;8.27;;
19675;SDS011;39539;52.202;9.876;2023-09-08T00:19:36;8.23;;;7.63;;
19675;SDS011;39539;52.202;9.876;2023-09-08T00:22:04;8.25;;;7.65;;
19675;SDS011;39539;52.202;9.876;2023-09-08T00:24:33;9.40;;;8.70;;
19675;SDS011;39539;52.202;9.876;2023-09-08T00:26:59;9.02;;;8.32;;
19675;SDS011;39539;52.202;9.876;2023-09-08T00:29:24;8.73;;;8.02;;
19675;SDS011;39539;52.202;9.876;2023-09-08T00:31:50;9.63;;;8.93;;
19675;SDS011;39539;52.202;9.876;2023-09-08T00:34:17;9.02;;;8.43;;
19675;SDS011;39539;52.202;9.876;2023-09-08T00:36:43;9.27;;;8.60;;
19675;SDS011;39539;52.202;9.876;2023-09-08T00:39:09;9.23;;;8.52;;
19675;SDS011;39539;52.202;9.876;2023-09-08T00:41:35;10.25;;;9.40;;
19675;SDS011;39539;52.202;9.876;2023-09-08T00:44:01;9.93;;;9.20;;
19675;SDS011;39539;52.202;9.876;2023-09-08T00:46:26;9.63;;;8.93;;
19675;SDS011;39539;52.202;9.876;2023-09-08T00:48:52;9.35;;;8.75;;
19675;SDS011;39539;52.202;9.876;2023-09-08T00:51:18;9.18;;;8.55;;
19675;SDS011;39539;52.202;9.876;2023-09-08T00:53:45;9.40;;;8.68;;
19675;SDS011;39539;52.202;9.876;2023-09-08T00:56:10;9.18;;;8.35;;
19675;SDS011;39539;52.202;9.876;2023-09-08T00:58:38;9.10;;;8.50;;
19675;SDS011;39539;52.202;9.876;2023-09-08T01:01:03;9.20;;;8.60;;
19675;SDS011;39539;52.202;9.876;2023-09-08T01:03:30;8.85;;;8.13;;
19675;SDS011;39539;52.202;9.876;2023-09-08T01:05:58;8.82;;;8.23;;
19675;SDS011;39539;52.202;9.876;2023-09-08T01:08:26;9.43;;;8.77;;
19675;SDS011;39539;52.202;9.876;2023-09-08T01:10:52;9.32;;;8.52;;
19675;SDS011;39539;52.202;9.876;2023-09-08T01:13:17;9.27;;;8.63;;
19675;SDS011;39539;52.202;9.876;2023-09-08T01:15:43;9.43;;;8.50;;
19675;SDS011;39539;52.202;9.876;2023-09-08T01:18:08;9.18;;;8.63;;
19675;SDS011;39539;52.202;9.876;2023-09-08T01:26:25;8.90;;;8.05;;
19675;SDS011;39539;52.202;9.876;2023-09-08T01:28:56;8.60;;;8.05;;
19675;SDS011;39539;52.202;9.876;2023-09-08T01:31:22;8.43;;;7.82;;
19675;SDS011;39539;52.202;9.876;2023-09-08T01:33:50;8.32;;;7.70;;
19675;SDS011;39539;52.202;9.876;2023-09-08T01:36:22;8.57;;;7.97;;
19675;SDS011;39539;52.202;9.876;2023-09-08T01:38:48;9.13;;;8.32;;
19675;SDS011;39539;52.202;9.876;2023-09-08T01:41:13;8.77;;;8.07;;
19675;SDS011;39539;52.202;9.876;2023-09-08T01:43:38;8.90;;;8.30;;
19675;SDS011;39539;52.202;9.876;2023-09-08T01:46:04;9.70;;;8.88;;
19675;SDS011;39539;52.202;9.876;2023-09-08T01:48:29;8.80;;;8.30;;
19675;SDS011;39539;52.202;9.876;2023-09-08T01:50:54;8.90;;;8.20;;
19675;SDS011;39539;52.202;9.876;2023-09-08T01:53:20;8.85;;;8.25;;
19675;SDS011;39539;52.202;9.876;2023-09-08T01:55:45;9.07;;;8.48;;
19675;SDS011;39539;52.202;9.876;2023-09-08T01:58:10;10.93;;;10.02;;
19675;SDS011;39539;52.202;9.876;2023-09-08T02:00:36;10.95;;;10.25;;
19675;SDS011;39539;52.202;9.876;2023-09-08T02:03:01;11.20;;;10.30;;
19675;SDS011;39539;52.202;9.876;2023-09-08T02:05:29;9.95;;;9.23;;
19675;SDS011;39539;52.202;9.876;2023-09-08T02:07:55;10.43;;;9.52;;
19675;SDS011;39539;52.202;9.876;2023-09-08T02:10:31;10.05;;;9.35;;
19675;SDS011;39539;52.202;9.876;2023-09-08T02:13:02;9.80;;;9.07;;
19675;SDS011;39539;52.202;9.876;2023-09-08T02:15:27;10.23;;;9.55;;
19675;SDS011;39539;52.202;9.876;2023-09-08T02:17:53;9.48;;;8.82;;
19675;SDS011;39539;52.202;9.876;2023-09-08T02:20:19;10.30;;;9.60;;
19675;SDS011;39539;52.202;9.876;2023-09-08T02:22:45;10.32;;;9.50;;
19675;SDS011;39539;52.202;9.876;2023-09-08T02:25:14;10.40;;;9.68;;
19675;SDS011;39539;52.202;9.876;2023-09-08T02:27:39;10.15;;;9.50;;
19675;SDS011;39539;52.202;9.876;2023-09-08T02:30:05;10.88;;;10.07;;
19675;SDS011;39539;52.202;9.876;2023-09-08T02:32:31;11.60;;;10.88;;
19675;SDS011;39539;52.202;9.876;2023-09-08T02:34:56;10.38;;;9.60;;
19675;SDS011;39539;52.202;9.876;2023-09-08T02:37:21;11.35;;;10.48;;
19675;SDS011;39539;52.202;9.876;2023-09-08T02:39:46;11.13;;;10.43;;
19675;SDS011;39539;52.202;9.876;2023-09-08T02:42:12;12.05;;;10.95;;
19675;SDS011;39539;52.202;9.876;2023-09-08T02:44:37;11.65;;;10.75;;
19675;SDS011;39539;52.202;9.876;2023-09-08T02:47:03;12.35;;;11.32;;
19675;SDS011;39539;52.202;9.876;2023-09-08T02:49:28;10.25;;;9.65;;
19675;SDS011;39539;52.202;9.876;2023-09-08T02:51:53;10.23;;;9.55;;
19675;SDS011;39539;52.202;9.876;2023-09-08T02:54:20;10.27;;;9.57;;
19675;SDS011;39539;52.202;9.876;2023-09-08T02:56:46;10.57;;;9.88;;
19675;SDS011;39539;52.202;9.876;2023-09-08T02:59:12;9.85;;;9.25;;
19675;SDS011;39539;52.202;9.876;2023-09-08T03:01:37;10.65;;;9.88;;
19675;SDS011;39539;52.202;9.876;2023-09-08T03:04:02;10.07;;;9.25;;
19675;SDS011;39539;52.202;9.876;2023-09-08T03:06:28;10.38;;;9.68;;
19675;SDS011;39539;52.202;9.876;2023-09-08T03:08:53;9.65;;;9.00;;
19675;SDS011;39539;52.202;9.876;2023-09-08T03:11:20;9.65;;;8.70;;
19675;SDS011;39539;52.202;9.876;2023-09-08T03:13:45;10.18;;;9.38;;
19675;SDS011;39539;52.202;9.876;2023-09-08T03:16:10;10.30;;;9.65;;
19675;SDS011;39539;52.202;9.876;2023-09-08T03:18:36;10.85;;;10.15;;
19675;SDS011;39539;52.202;9.876;2023-09-08T03:21:02;10.43;;;9.73;;
19675;SDS011;39539;52.202;9.876;2023-09-08T03:23:35;9.85;;;8.82;;
19675;SDS011;39539;52.202;9.876;2023-09-08T03:26:01;10.00;;;9.20;;
19675;SDS011;39539;52.202;9.876;2023-09-08T03:28:31;9.70;;;9.00;;
19675;SDS011;39539;52.202;9.876;2023-09-08T03:30:58;10.25;;;9.35;;
19675;SDS011;39539;52.202;9.876;2023-09-08T03:33:23;10.85;;;9.80;;
19675;SDS011;39539;52.202;9.876;2023-09-08T03:35:48;9.55;;;8.95;;
19675;SDS011;39539;52.202;9.876;2023-09-08T03:38:15;10.70;;;9.95;;
19675;SDS011;39539;52.202;9.876;2023-09-08T03:40:42;10.50;;;9.80;;
19675;SDS011;39539;52.202;9.876;2023-09-08T03:43:07;12.07;;;11.35;;
19675;SDS011;39539;52.202;9.876;2023-09-08T03:45:34;11.13;;;10.43;;
19675;SDS011;39539;52.202;9.876;2023-09-08T03:47:59;11.63;;;10.73;;
19675;SDS011;39539;52.202;9.876;2023-09-08T03:50:25;11.40;;;10.60;;
19675;SDS011;39539;52.202;9.876;2023-09-08T03:52:51;10.07;;;9.27;;
19675;SDS011;39539;52.202;9.876;2023-09-08T03:55:18;10.02;;;9.43;;
19675;SDS011;39539;52.202;9.876;2023-09-08T03:57:45;9.40;;;8.80;;
19675;SDS011;39539;52.202;9.876;2023-09-08T04:00:10;10.52;;;9.73;;
19675;SDS011;39539;52.202;9.876;2023-09-08T04:02:36;10.70;;;9.98;;
19675;SDS011;39539;52.202;9.876;2023-09-08T04:05:01;11.73;;;10.85;;
19675;SDS011;39539;52.202;9.876;2023-09-08T04:07:27;12.90;;;11.70;;
19675;SDS011;39539;52.202;9.876;2023-09-08T04:09:52;14.07;;;12.20;;
19675;SDS011;39539;52.202;9.876;2023-09-08T04:12:18;12.50;;;11.60;;
19675;SDS011;39539;52.202;9.876;2023-09-08T04:14:43;11.88;;;11.05;;
19675;SDS011;39539;52.202;9.876;2023-09-08T04:17:08;12.10;;;11.30;;
19675;SDS011;39539;52.202;9.876;2023-09-08T04:19:34;11.93;;;11.13;;
19675;SDS011;39539;52.202;9.876;2023-09-08T04:21:59;13.15;;;12.05;;
19675;SDS011;39539;52.202;9.876;2023-09-08T04:24:24;12.20;;;11.30;;
19675;SDS011;39539;52.202;9.876;2023-09-08T04:26:51;12.88;;;11.98;;
19675;SDS011;39539;52.202;9.876;2023-09-08T04:29:16;12.38;;;11.57;;
19675;SDS011;39539;52.202;9.876;2023-09-08T04:31:42;12.65;;;11.75;;
19675;SDS011;39539;52.202;9.876;2023-09-08T04:34:14;13.73;;;12.73;;
19675;SDS011;39539;52.202;9.876;2023-09-08T04:36:39;13.40;;;12.43;;
19675;SDS011;39539;52.202;9.876;2023-09-08T04:39:05;13.52;;;11.32;;
19675;SDS011;39539;52.202;9.876;2023-09-08T04:41:31;12.55;;;11.60;;
19675;SDS011;39539;52.202;9.876;2023-09-08T04:43:56;11.68;;;10.77;;
19675;SDS011;39539;52.202;9.876;2023-09-08T04:46:24;10.93;;;10.10;;
19675;SDS011;39539;52.202;9.876;2023-09-08T04:48:49;12.15;;;11.13;;
19675;SDS011;39539;52.202;9.876;2023-09-08T04:51:16;12.52;;;11.27;;
19675;SDS011;39539;52.202;9.876;2023-09-08T04:53:42;12.73;;;11.38;;
19675;SDS011;39539;52.202;9.876;2023-09-08T04:56:10;13.20;;;11.10;;
19675;SDS011;39539;52.202;9.876;2023-09-08T04:58:37;16.50;;;10.55;;
19675;SDS011;39539;52.202;9.876;2023-09-08T05:01:02;13.32;;;11.48;;
19675;SDS011;39539;52.202;9.876;2023-09-08T05:03:27;13.60;;;12.30;;
19675;SDS011;39539;52.202;9.876;2023-09-08T05:05:53;13.52;;;12.13;;
19675;SDS011;39539;52.202;9.876;2023-09-08T05:08:18;12.30;;;10.98;;
19675;SDS011;39539;52.202;9.876;2023-09-08T05:10:44;13.95;;;10.55;;
19675;SDS011;39539;52.202;9.876;2023-09-08T05:13:09;11.27;;;10.40;;
19675;SDS011;39539;52.202;9.876;2023-09-08T05:15:35;12.05;;;11.00;;
19675;SDS011;39539;52.202;9.876;2023-09-08T05:18:00;11.60;;;10.60;;
19675;SDS011;39539;52.202;9.876;2023-09-08T05:20:31;12.25;;;11.45;;
19675;SDS011;39539;52.202;9.876;2023-09-08T05:22:57;11.90;;;10.95;;
19675;SDS011;39539;52.202;9.876;2023-09-08T05:25:22;12.38;;;11.48;;
19675;SDS011;39539;52.202;9.876;2023-09-08T05:27:47;12.45;;;11.55;;
19675;SDS011;39539;52.202;9.876;2023-09-08T05:30:14;12.98;;;11.82;;
19675;SDS011;39539;52.202;9.876;2023-09-08T05:32:39;11.73;;;10.93;;
19675;SDS011;39539;52.202;9.876;2023-09-08T05:35:07;14.13;;;12.38;;
19675;SDS011;39539;52.202;9.876;2023-09-08T05:37:42;13.18;;;12.10;;
19675;SDS011;39539;52.202;9.876;2023-09-08T05:40:08;13.48;;;12.10;;
19675;SDS011;39539;52.202;9.876;2023-09-08T05:42:33;12.82;;;11.75;;
19675;SDS011;39539;52.202;9.876;2023-09-08T05:44:58;11.70;;;11.00;;
19675;SDS011;39539;52.202;9.876;2023-09-08T05:47:27;13.57;;;11.25;;
19675;SDS011;39539;52.202;9.876;2023-09-08T05:49:52;13.52;;;12.38;;
19675;SDS011;39539;52.202;9.876;2023-09-08T05:52:19;13.10;;;12.20;;
19675;SDS011;39539;52.202;9.876;2023-09-08T05:54:50;12.73;;;11.63;;
19675;SDS011;39539;52.202;9.876;2023-09-08T05:57:15;12.93;;;11.73;;
19675;SDS011;39539;52.202;9.876;2023-09-08T05:59:41;11.57;;;10.68;;
19675;SDS011;39539;52.202;9.876;2023-09-08T06:02:06;9.18;;;8.57;;
19675;SDS011;39539;52.202;9.876;2023-09-08T06:04:38;17.23;;;15.88;;
19675;SDS011;39539;52.202;9.876;2023-09-08T06:07:03;9.05;;;8.25;;
19675;SDS011;39539;52.202;9.876;2023-09-08T06:09:28;7.38;;;6.88;;
19675;SDS011;39539;52.202;9.876;2023-09-08T06:11:54;6.95;;;6.35;;
19675;SDS011;39539;52.202;9.876;2023-09-08T06:14:19;6.65;;;6.15;;
19675;SDS011;39539;52.202;9.876;2023-09-08T06:16:44;6.10;;;5.78;;
19675;SDS011;39539;52.202;9.876;2023-09-08T06:19:12;6.05;;;5.65;;
19675;SDS011;39539;52.202;9.876;2023-09-08T06:21:38;6.38;;;5.78;;
19675;SDS011;39539;52.202;9.876;2023-09-08T06:24:04;5.95;;;5.55;;
19675;SDS011;39539;52.202;9.876;2023-09-08T06:26:29;6.68;;;6.15;;
19675;SDS011;39539;52.202;9.876;2023-09-08T06:28:56;5.78;;;5.30;;
19675;SDS011;39539;52.202;9.876;2023-09-08T06:31:21;6.43;;;6.03;;
19675;SDS011;39539;52.202;9.876;2023-09-08T06:33:48;6.00;;;5.47;;
19675;SDS011;39539;52.202;9.876;2023-09-08T06:36:16;6.72;;;5.80;;
19675;SDS011;39539;52.202;9.876;2023-09-08T06:38:42;6.28;;;5.78;;
19675;SDS011;39539;52.202;9.876;2023-09-08T06:41:08;5.88;;;5.40;;
19675;SDS011;39539;52.202;9.876;2023-09-08T06:43:37;5.97;;;5.45;;
19675;SDS011;39539;52.202;9.876;2023-09-08T06:46:03;6.82;;;5.63;;
19675;SDS011;39539;52.202;9.876;2023-09-08T06:48:29;6.13;;;5.72;;
19675;SDS011;39539;52.202;9.876;2023-09-08T06:50:54;6.63;;;6.03;;
19675;SDS011;39539;52.202;9.876;2023-09-08T06:53:21;5.82;;;5.35;;
19675;SDS011;39539;52.202;9.876;2023-09-08T06:55:48;5.47;;;5.18;;
19675;SDS011;39539;52.202;9.876;2023-09-08T06:58:15;5.85;;;5.45;;
19675;SDS011;39539;52.202;9.876;2023-09-08T07:00:41;6.40;;;5.90;;
19675;SDS011;39539;52.202;9.876;2023-09-08T07:03:06;5.70;;;5.40;;
19675;SDS011;39539;52.202;9.876;2023-09-08T07:05:33;5.53;;;5.13;;
19675;SDS011;39539;52.202;9.876;2023-09-08T07:07:59;6.38;;;5.80;;
19675;SDS011;39539;52.202;9.876;2023-09-08T07:10:24;6.03;;;5.63;;
19675;SDS011;39539;52.202;9.876;2023-09-08T07:12:49;8.00;;;6.63;;
19675;SDS011;39539;52.202;9.876;2023-09-08T07:15:15;7.90;;;7.13;;
19675;SDS011;39539;52.202;9.876;2023-09-08T07:17:40;7.18;;;6.57;;
19675;SDS011;39539;52.202;9.876;2023-09-08T07:20:07;7.03;;;6.25;;
19675;SDS011;39539;52.202;9.876;2023-09-08T07:22:33;6.57;;;5.97;;
19675;SDS011;39539;52.202;9.876;2023-09-08T07:24:58;7.68;;;6.82;;
19675;SDS011;39539;52.202;9.876;2023-09-08T07:27:23;6.60;;;6.00;;
19675;SDS011;39539;52.202;9.876;2023-09-08T07:29:49;8.98;;;6.05;;
19675;SDS011;39539;52.202;9.876;2023-09-08T07:32:23;6.03;;;5.53;;
19675;SDS011;39539;52.202;9.876;2023-09-08T07:34:50;5.75;;;4.85;;
19675;SDS011;39539;52.202;9.876;2023-09-08T07:37:20;5.57;;;5.18;;
19675;SDS011;39539;52.202;9.876;2023-09-08T07:39:47;8.77;;;5.90;;
19675;SDS011;39539;52.202;9.876;2023-09-08T07:42:13;6.63;;;5.47;;
19675;SDS011;39539;52.202;9.876;2023-09-08T07:44:38;8.52;;;5.65;;
19675;SDS011;39539;52.202;9.876;2023-09-08T07:47:03;8.50;;;5.97;;
19675;SDS011;39539;52.202;9.876;2023-09-08T07:49:30;5.70;;;5.20;;
19675;SDS011;39539;52.202;9.876;2023-09-08T07:51:57;6.38;;;5.05;;
19675;SDS011;39539;52.202;9.876;2023-09-08T07:54:24;6.75;;;5.30;;
19675;SDS011;39539;52.202;9.876;2023-09-08T07:56:49;7.55;;;5.32;;
19675;SDS011;39539;52.202;9.876;2023-09-08T07:59:17;41.15;;;8.60;;
19675;SDS011;39539;52.202;9.876;2023-09-08T08:01:43;6.90;;;5.30;;
19675;SDS011;39539;52.202;9.876;2023-09-08T08:04:11;10.23;;;5.30;;
19675;SDS011;39539;52.202;9.876;2023-09-08T08:06:38;5.72;;;5.22;;
19675;SDS011;39539;52.202;9.876;2023-09-08T08:09:22;6.07;;;5.47;;
19675;SDS011;39539;52.202;9.876;2023-09-08T08:11:47;5.22;;;4.82;;
19675;SDS011;39539;52.202;9.876;2023-09-08T08:14:15;5.93;;;5.32;;
19675;SDS011;39539;52.202;9.876;2023-09-08T08:16:41;9.15;;;5.05;;
19675;SDS011;39539;52.202;9.876;2023-09-08T08:19:12;5.55;;;5.10;;
19675;SDS011;39539;52.202;9.876;2023-09-08T08:21:38;7.18;;;5.00;;
19675;SDS011;39539;52.202;9.876;2023-09-08T08:24:16;5.45;;;4.95;;
19675;SDS011;39539;52.202;9.876;2023-09-08T08:26:41;5.55;;;4.80;;
19675;SDS011;39539;52.202;9.876;2023-09-08T08:29:07;7.07;;;5.07;;
19675;SDS011;39539;52.202;9.876;2023-09-08T08:31:32;5.22;;;4.53;;
19675;SDS011;39539;52.202;9.876;2023-09-08T08:33:58;9.57;;;4.70;;
19675;SDS011;39539;52.202;9.876;2023-09-08T08:36:23;5.55;;;4.45;;
19675;SDS011;39539;52.202;9.876;2023-09-08T08:38:48;5.10;;;3.95;;
19675;SDS011;39539;52.202;9.876;2023-09-08T08:41:17;6.28;;;4.50;;
19675;SDS011;39539;52.202;9.876;2023-09-08T08:43:43;5.32;;;3.85;;
19675;SDS011;39539;52.202;9.876;2023-09-08T08:46:11;4.28;;;3.72;;
19675;SDS011;39539;52.202;9.876;2023-09-08T08:48:39;3.63;;;3.33;;
19675;SDS011;39539;52.202;9.876;2023-09-08T08:51:05;5.40;;;3.20;;
19675;SDS011;39539;52.202;9.876;2023-09-08T08:53:33;4.65;;;4.00;;
19675;SDS011;39539;52.202;9.876;2023-09-08T08:56:01;6.35;;;3.60;;
19675;SDS011;39539;52.202;9.876;2023-09-08T08:58:27;3.92;;;3.63;;
19675;SDS011;39539;52.202;9.876;2023-09-08T09:00:54;6.28;;;3.53;;
19675;SDS011;39539;52.202;9.876;2023-09-08T09:03:27;3.88;;;3.20;;
19675;SDS011;39539;52.202;9.876;2023-09-08T09:05:54;3.55;;;3.25;;
19675;SDS011;39539;52.202;9.876;2023-09-08T09:08:20;3.30;;;2.95;;
19675;SDS011;39539;52.202;9.876;2023-09-08T09:10:51;3.70;;;3.50;;
19675;SDS011;39539;52.202;9.876;2023-09-08T09:13:18;3.40;;;3.10;;
19675;SDS011;39539;52.202;9.876;2023-09-08T09:15:44;3.30;;;3.10;;
19675;SDS011;39539;52.202;9.876;2023-09-08T09:18:10;12.07;;;3.40;;
19675;SDS011;39539;52.202;9.876;2023-09-08T09:20:41;4.45;;;3.33;;
19675;SDS011;39539;52.202;9.876;2023-09-08T09:23:36;3.60;;;3.15;;
19675;SDS011;39539;52.202;9.876;2023-09-08T09:26:02;3.85;;;3.42;;
19675;SDS011;39539;52.202;9.876;2023-09-08T09:28:34;4.50;;;3.35;;
19675;SDS011;39539;52.202;9.876;2023-09-08T09:31:12;4.45;;;3.10;;
19675;SDS011;39539;52.202;9.876;2023-09-08T09:33:38;3.38;;;3.17;;
19675;SDS011;39539;52.202;9.876;2023-09-08T09:36:03;4.82;;;3.00;;
19675;SDS011;39539;52.202;9.876;2023-09-08T09:38:30;4.10;;;3.00;;
19675;SDS011;39539;52.202;9.876;2023-09-08T09:40:55;4.40;;;3.08;;
19675;SDS011;39539;52.202;9.876;2023-09-08T09:43:21;2.90;;;2.65;;
19675;SDS011;39539;52.202;9.876;2023-09-08T09:45:51;3.03;;;2.85;;
19675;SDS011;39539;52.202;9.876;2023-09-08T09:48:25;3.10;;;2.75;;
19675;SDS011;39539;52.202;9.876;2023-09-08T09:50:56;2.85;;;2.53;;
19675;SDS011;39539;52.202;9.876;2023-09-08T09:53:21;3.70;;;2.65;;
19675;SDS011;39539;52.202;9.876;2023-09-08T09:55:49;4.45;;;2.83;;
19675;SDS011;39539;52.202;9.876;2023-09-08T09:58:21;3.30;;;3.00;;
19675;SDS011;39539;52.202;9.876;2023-09-08T10:00:48;3.70;;;2.90;;
19675;SDS011;39539;52.202;9.876;2023-09-08T10:03:15;2.97;;;2.78;;
19675;SDS011;39539;52.202;9.876;2023-09-08T10:05:42;2.88;;;2.67;;
19675;SDS011;39539;52.202;9.876;2023-09-08T10:08:08;4.30;;;3.00;;
19675;SDS011;39539;52.202;9.876;2023-09-08T10:10:34;3.13;;;2.88;;
19675;SDS011;39539;52.202;9.876;2023-09-08T10:13:05;3.00;;;2.63;;
19675;SDS011;39539;52.202;9.876;2023-09-08T10:15:31;3.38;;;3.17;;
19675;SDS011;39539;52.202;9.876;2023-09-08T10:17:57;3.33;;;3.13;;
19675;SDS011;39539;52.202;9.876;2023-09-08T10:20:28;3.35;;;3.15;;
19675;SDS011;39539;52.202;9.876;2023-09-08T10:23:07;3.10;;;2.90;;
19675;SDS011;39539;52.202;9.876;2023-09-08T10:25:37;3.83;;;2.97;;
19675;SDS011;39539;52.202;9.876;2023-09-08T10:28:12;3.60;;;3.30;;
19675;SDS011;39539;52.202;9.876;2023-09-08T10:30:39;3.63;;;3.33;;
19675;SDS011;39539;52.202;9.876;2023-09-08T10:33:05;3.60;;;3.40;;
19675;SDS011;39539;52.202;9.876;2023-09-08T10:35:31;4.35;;;3.33;;
19675;SDS011;39539;52.202;9.876;2023-09-08T10:40:51;3.17;;;2.97;;
19675;SDS011;39539;52.202;9.876;2023-09-08T10:43:18;3.25;;;3.05;;
19675;SDS011;39539;52.202;9.876;2023-09-08T10:45:46;3.15;;;2.95;;
19675;SDS011;39539;52.202;9.876;2023-09-08T10:48:12;3.58;;;3.38;;
19675;SDS011;39539;52.202;9.876;2023-09-08T10:50:39;3.70;;;3.40;;
19675;SDS011;39539;52.202;9.876;2023-09-08T10:53:18;3.85;;;3.55;;
19675;SDS011;39539;52.202;9.876;2023-09-08T10:55:45;3.83;;;3.53;;
19675;SDS011;39539;52.202;9.876;2023-09-08T10:58:41;3.78;;;3.47;;
19675;SDS011;39539;52.202;9.876;2023-09-08T11:01:13;5.05;;;3.40;;
19675;SDS011;39539;52.202;9.876;2023-09-08T11:06:07;3.47;;;3.17;;
19675;SDS011;39539;52.202;9.876;2023-09-08T11:08:40;3.33;;;3.13;;
19675;SDS011;39539;52.202;9.876;2023-09-08T11:11:09;3.58;;;3.38;;
19675;SDS011;39539;52.202;9.876;2023-09-08T11:13:35;4.18;;;3.80;;
19675;SDS011;39539;52.202;9.876;2023-09-08T11:16:01;3.38;;;3.17;;
19675;SDS011;39539;52.202;9.876;2023-09-08T11:18:31;3.38;;;3.13;;
19675;SDS011;39539;52.202;9.876;2023-09-08T11:21:02;3.33;;;3.03;;
19675;SDS011;39539;52.202;9.876;2023-09-08T11:23:28;3.50;;;3.20;;
19675;SDS011;39539;52.202;9.876;2023-09-08T11:25:54;4.63;;;3.28;;
19675;SDS011;39539;52.202;9.876;2023-09-08T11:28:23;3.83;;;2.80;;
19675;SDS011;39539;52.202;9.876;2023-09-08T11:30:49;3.60;;;3.30;;
19675;SDS011;39539;52.202;9.876;2023-09-08T11:33:17;3.75;;;3.33;;
19675;SDS011;39539;52.202;9.876;2023-09-08T11:35:47;3.10;;;2.90;;
19675;SDS011;39539;52.202;9.876;2023-09-08T11:38:14;3.70;;;3.40;;
19675;SDS011;39539;52.202;9.876;2023-09-08T11:40:40;3.60;;;3.40;;
19675;SDS011;39539;52.202;9.876;2023-09-08T11:43:06;3.60;;;3.40;;
19675;SDS011;39539;52.202;9.876;2023-09-08T11:45:35;4.63;;;3.35;;
19675;SDS011;39539;52.202;9.876;2023-09-08T11:48:02;3.78;;;3.38;;
19675;SDS011;39539;52.202;9.876;2023-09-08T11:50:29;4.00;;;3.70;;
19675;SDS011;39539;52.202;9.876;2023-09-08T11:52:57;3.20;;;3.00;;
19675;SDS011;39539;52.202;9.876;2023-09-08T11:55:24;3.47;;;3.28;;
19675;SDS011;39539;52.202;9.876;2023-09-08T11:57:52;3.45;;;3.20;;
19675;SDS011;39539;52.202;9.876;2023-09-08T12:00:26;3.28;;;3.00;;
19675;SDS011;39539;52.202;9.876;2023-09-08T12:02:52;3.25;;;3.00;;
19675;SDS011;39539;52.202;9.876;2023-09-08T12:05:25;4.30;;;2.63;;
19675;SDS011;39539;52.202;9.876;2023-09-08T12:07:52;4.00;;;2.53;;
19675;SDS011;39539;52.202;9.876;2023-09-08T12:10:20;3.80;;;3.33;;
19675;SDS011;39539;52.202;9.876;2023-09-08T12:12:47;3.08;;;2.88;;
19675;SDS011;39539;52.202;9.876;2023-09-08T12:15:35;3.00;;;2.80;;
19675;SDS011;39539;52.202;9.876;2023-09-08T12:18:06;3.35;;;3.05;;
19675;SDS011;39539;52.202;9.876;2023-09-08T12:20:34;3.95;;;2.50;;
19675;SDS011;39539;52.202;9.876;2023-09-08T12:23:03;3.00;;;2.80;;
19675;SDS011;39539;52.202;9.876;2023-09-08T12:25:31;2.85;;;2.65;;
19675;SDS011;39539;52.202;9.876;2023-09-08T12:27:56;2.95;;;2.65;;
19675;SDS011;39539;52.202;9.876;2023-09-08T12:30:23;3.38;;;2.97;;
19675;SDS011;39539;52.202;9.876;2023-09-08T12:32:57;2.95;;;2.75;;
19675;SDS011;39539;52.202;9.876;2023-09-08T12:35:24;2.60;;;2.40;;
19675;SDS011;39539;52.202;9.876;2023-09-08T12:38:10;2.83;;;2.53;;
19675;SDS011;39539;52.202;9.876;2023-09-08T12:40:37;3.03;;;2.70;;
19675;SDS011;39539;52.202;9.876;2023-09-08T12:43:03;2.33;;;2.17;;
19675;SDS011;39539;52.202;9.876;2023-09-08T12:45:33;5.80;;;2.10;;
19675;SDS011;39539;52.202;9.876;2023-09-08T12:47:59;2.40;;;2.13;;
19675;SDS011;39539;52.202;9.876;2023-09-08T12:50:29;1.90;;;1.80;;
19675;SDS011;39539;52.202;9.876;2023-09-08T12:52:56;2.05;;;1.95;;
19675;SDS011;39539;52.202;9.876;2023-09-08T12:55:22;4.80;;;2.15;;
19675;SDS011;39539;52.202;9.876;2023-09-08T12:57:49;2.75;;;2.10;;
19675;SDS011;39539;52.202;9.876;2023-09-08T13:00:15;2.30;;;2.20;;
19675;SDS011;39539;52.202;9.876;2023-09-08T13:02:41;2.30;;;2.20;;
19675;SDS011;39539;52.202;9.876;2023-09-08T13:05:12;4.22;;;2.53;;
19675;SDS011;39539;52.202;9.876;2023-09-08T13:07:37;3.28;;;2.15;;
19675;SDS011;39539;52.202;9.876;2023-09-08T13:10:05;2.50;;;2.30;;
19675;SDS011;39539;52.202;9.876;2023-09-08T13:12:31;2.40;;;2.30;;
19675;SDS011;39539;52.202;9.876;2023-09-08T13:14:56;2.25;;;2.10;;
19675;SDS011;39539;52.202;9.876;2023-09-08T13:17:22;2.65;;;2.45;;
19675;SDS011;39539;52.202;9.876;2023-09-08T13:19:47;2.70;;;2.50;;
19675;SDS011;39539;52.202;9.876;2023-09-08T13:22:13;3.15;;;2.78;;
19675;SDS011;39539;52.202;9.876;2023-09-08T13:24:39;2.60;;;2.40;;
19675;SDS011;39539;52.202;9.876;2023-09-08T13:27:04;2.63;;;2.40;;
19675;SDS011;39539;52.202;9.876;2023-09-08T13:29:30;2.83;;;2.63;;
19675;SDS011;39539;52.202;9.876;2023-09-08T13:31:55;3.22;;;2.80;;
19675;SDS011;39539;52.202;9.876;2023-09-08T13:34:22;2.90;;;2.50;;
19675;SDS011;39539;52.202;9.876;2023-09-08T13:36:48;2.90;;;2.53;;
19675;SDS011;39539;52.202;9.876;2023-09-08T13:39:14;2.35;;;2.15;;
19675;SDS011;39539;52.202;9.876;2023-09-08T13:41:52;2.30;;;2.20;;
19675;SDS011;39539;52.202;9.876;2023-09-08T13:44:22;2.97;;;2.40;;
19675;SDS011;39539;52.202;9.876;2023-09-08T13:46:49;3.58;;;2.33;;
19675;SDS011;39539;52.202;9.876;2023-09-08T13:49:15;2.80;;;2.60;;
19675;SDS011;39539;52.202;9.876;2023-09-08T13:51:42;2.78;;;2.58;;
19675;SDS011;39539;52.202;9.876;2023-09-08T13:54:08;2.97;;;2.72;;
19675;SDS011;39539;52.202;9.876;2023-09-08T13:56:34;3.42;;;3.13;;
19675;SDS011;39539;52.202;9.876;2023-09-08T13:59:00;3.03;;;2.70;;
19675;SDS011;39539;52.202;9.876;2023-09-08T14:01:26;3.22;;;3.03;;
19675;SDS011;39539;52.202;9.876;2023-09-08T14:03:54;3.10;;;2.80;;
19675;SDS011;39539;52.202;9.876;2023-09-08T14:06:22;3.85;;;3.08;;
19675;SDS011;39539;52.202;9.876;2023-09-08T14:08:49;3.25;;;2.70;;
19675;SDS011;39539;52.202;9.876;2023-09-08T14:11:15;3.03;;;2.63;;
19675;SDS011;39539;52.202;9.876;2023-09-08T14:13:41;2.80;;;2.60;;
19675;SDS011;39539;52.202;9.876;2023-09-08T14:16:08;2.67;;;2.47;;
19675;SDS011;39539;52.202;9.876;2023-09-08T14:18:33;3.25;;;3.05;;
19675;SDS011;39539;52.202;9.876;2023-09-08T14:20:59;3.03;;;2.75;;
19675;SDS011;39539;52.202;9.876;2023-09-08T14:23:25;3.67;;;2.88;;
19675;SDS011;39539;52.202;9.876;2023-09-08T14:25:51;3.60;;;3.30;;
19675;SDS011;39539;52.202;9.876;2023-09-08T14:28:16;2.78;;;2.63;;
19675;SDS011;39539;52.202;9.876;2023-09-08T14:30:42;3.35;;;2.60;;
19675;SDS011;39539;52.202;9.876;2023-09-08T14:33:07;3.88;;;3.25;;
19675;SDS011;39539;52.202;9.876;2023-09-08T14:35:34;3.33;;;2.80;;
19675;SDS011;39539;52.202;9.876;2023-09-08T14:38:00;2.80;;;2.60;;
19675;SDS011;39539;52.202;9.876;2023-09-08T14:40:25;3.10;;;2.80;;
19675;SDS011;39539;52.202;9.876;2023-09-08T14:42:50;4.88;;;3.03;;
19675;SDS011;39539;52.202;9.876;2023-09-08T14:45:16;3.58;;;2.80;;
19675;SDS011;39539;52.202;9.876;2023-09-08T14:47:41;4.53;;;2.63;;
19675;SDS011;39539;52.202;9.876;2023-09-08T14:50:07;2.72;;;2.53;;